Aviation Digital Data Service (ADDS)

Output produced by METARs form (1235 UTC 26 February 2017)
found at http://aviationweather.gov/adds/metars/
 
KJXN 261140Z 2612/2712 22010KT P6SM SCT035 
     FM261600 22014G22KT P6SM BKN050 
     FM270100 23010KT P6SM SCT050